Time;durP1;ratioP1;P1;durP2;ratioP2;P2;SDS_P1;SDS_P2;PMS_P1;PMS_P2;Temp;Humidity;BMP_temperature;BMP_pressure;BME280_temperature;BME280_humidity;BME280_pressure;Samples;Min_cycle;Max_cycle;Signal;HPM_P1;HPM_P2
2022/04/10 00:00:43;;;;;;;6.87;4.70;;;7.20;99.90;;;;;;5022856;28;20295;-73
2022/04/10 00:03:10;;;;;;;8.07;4.50;;;7.20;99.90;;;;;;5022972;28;20248;-71
2022/04/10 00:05:36;;;;;;;4.00;3.57;;;7.20;99.90;;;;;;5021317;28;20184;-75
2022/04/10 00:08:04;;;;;;;4.37;3.20;;;7.10;99.90;;;;;;5024477;28;20500;-75
2022/04/10 00:10:30;;;;;;;7.07;3.90;;;7.10;99.90;;;;;;5020564;28;22318;-75
2022/04/10 00:12:56;;;;;;;6.17;4.40;;;7.10;99.90;;;;;;5020050;28;20475;-75
2022/04/10 00:15:21;;;;;;;7.60;4.20;;;7.10;99.90;;;;;;5013336;28;20563;-74
2022/04/10 00:17:47;;;;;;;5.50;4.63;;;7.10;99.90;;;;;;5019133;28;20192;-75
2022/04/10 00:20:13;;;;;;;4.00;3.50;;;7.00;99.90;;;;;;5021554;28;20257;-74
2022/04/10 00:22:46;;;;;;;5.17;4.13;;;7.00;99.90;;;;;;5019457;28;20645;-73
2022/04/10 00:25:15;;;;;;;4.60;4.10;;;7.00;99.90;;;;;;5022085;28;20184;-73
2022/04/10 00:27:40;;;;;;;5.40;4.53;;;6.90;99.90;;;;;;5017751;28;21161;-74
2022/04/10 00:30:08;;;;;;;5.23;3.60;;;7.00;99.90;;;;;;5018988;28;20451;-73
2022/04/10 00:32:34;;;;;;;4.73;3.67;;;7.00;99.90;;;;;;5033799;28;20197;-74
2022/04/10 00:34:59;;;;;;;6.90;4.23;;;7.00;99.90;;;;;;5018246;28;20471;-74
2022/04/10 00:37:26;;;;;;;6.03;4.20;;;7.00;99.90;;;;;;5018360;28;20477;-73
2022/04/10 00:39:52;;;;;;;4.77;3.60;;;7.00;99.90;;;;;;5017259;28;20215;-73
2022/04/10 00:42:18;;;;;;;6.97;4.07;;;6.90;99.90;;;;;;5019917;28;20423;-73
2022/04/10 00:44:44;;;;;;;5.70;4.20;;;6.90;99.90;;;;;;5019682;28;20583;-74
2022/04/10 00:47:10;;;;;;;5.00;4.10;;;6.80;99.90;;;;;;5023075;28;20546;-74
2022/04/10 00:49:36;;;;;;;6.03;4.77;;;6.80;99.90;;;;;;5019762;28;20447;-74
2022/04/10 00:52:09;;;;;;;8.00;4.50;;;6.80;99.90;;;;;;5024601;28;20431;-74
2022/04/10 00:54:36;;;;;;;6.63;3.90;;;6.80;99.90;;;;;;5019935;28;20505;-73
2022/04/10 00:57:02;;;;;;;6.20;4.13;;;6.90;99.90;;;;;;5018647;28;20511;-74
2022/04/10 00:59:29;;;;;;;6.10;4.53;;;6.90;99.90;;;;;;5022802;28;20525;-72
2022/04/10 01:01:55;;;;;;;6.97;4.90;;;6.80;99.90;;;;;;5019118;28;21525;-73
2022/04/10 01:04:21;;;;;;;6.80;4.17;;;6.80;99.90;;;;;;5023267;28;20569;-74
2022/04/10 01:06:48;;;;;;;9.77;4.40;;;6.80;99.90;;;;;;5021511;28;20728;-75
2022/04/10 01:09:15;;;;;;;5.63;4.53;;;6.70;99.90;;;;;;5021208;28;20482;-74
2022/04/10 01:11:41;;;;;;;7.50;4.83;;;6.70;99.90;;;;;;5022286;28;20937;-74
2022/04/10 01:14:08;;;;;;;5.33;4.40;;;6.60;99.90;;;;;;5022422;28;20473;-74
2022/04/10 01:16:34;;;;;;;5.60;5.00;;;6.60;99.90;;;;;;5020298;28;20788;-74
2022/04/10 01:19:03;;;;;;;10.43;4.73;;;6.60;99.90;;;;;;5021198;28;20486;-73
2022/04/10 01:21:32;;;;;;;6.23;4.50;;;6.50;99.90;;;;;;5020550;28;20435;-74
2022/04/10 01:23:58;;;;;;;5.10;4.40;;;6.40;99.90;;;;;;5015175;28;20462;-74
2022/04/10 01:26:25;;;;;;;5.23;4.60;;;6.40;99.90;;;;;;5020705;28;20436;-74
2022/04/10 01:29:08;;;;;;;6.60;3.93;;;6.40;99.90;;;;;;5021149;28;20201;-74
2022/04/10 01:31:36;;;;;;;6.87;4.93;;;6.30;99.90;;;;;;5019649;28;20442;-74
2022/04/10 01:34:10;;;;;;;6.13;4.70;;;6.30;99.90;;;;;;5022490;28;20442;-74
2022/04/10 01:36:37;;;;;;;6.50;4.90;;;6.30;99.90;;;;;;5017611;28;20455;-75
2022/04/10 01:39:07;;;;;;;6.20;4.90;;;6.30;99.90;;;;;;5016700;28;20463;-75
2022/04/10 01:41:34;;;;;;;6.83;5.20;;;6.20;99.90;;;;;;5021228;28;20955;-76
2022/04/10 01:44:00;;;;;;;6.57;4.70;;;6.30;99.90;;;;;;5015965;28;20467;-76
2022/04/10 01:46:28;;;;;;;8.80;3.90;;;6.20;99.90;;;;;;5016455;28;20834;-76
2022/04/10 01:48:53;;;;;;;7.73;4.97;;;6.20;99.90;;;;;;5016114;28;20287;-76
2022/04/10 01:51:19;;;;;;;6.60;4.13;;;6.10;99.90;;;;;;5019056;28;20522;-76
2022/04/10 01:53:45;;;;;;;7.07;4.43;;;6.00;99.90;;;;;;5017124;28;20190;-77
2022/04/10 01:56:11;;;;;;;4.90;4.10;;;6.00;99.90;;;;;;5016718;28;20184;-74
2022/04/10 01:58:39;;;;;;;5.37;4.83;;;6.00;99.90;;;;;;5017666;28;21034;-75
2022/04/10 02:01:07;;;;;;;5.03;4.03;;;5.90;99.90;;;;;;5015396;28;20435;-74
2022/04/10 02:03:34;;;;;;;5.40;4.27;;;6.00;99.90;;;;;;5017902;28;20478;-74
2022/04/10 02:06:00;;;;;;;5.00;4.40;;;5.90;99.90;;;;;;5017782;28;20432;-73
2022/04/10 02:08:30;;;;;;;4.73;4.20;;;5.90;99.90;;;;;;5016126;28;20465;-75
2022/04/10 02:10:55;;;;;;;5.67;4.13;;;5.90;99.90;;;;;;5014941;28;20435;-74
2022/04/10 02:13:22;;;;;;;4.20;3.67;;;6.00;99.90;;;;;;5015984;28;20958;-74
2022/04/10 02:15:47;;;;;;;6.50;4.70;;;5.90;99.90;;;;;;5015534;28;20295;-75
2022/04/10 02:18:14;;;;;;;5.10;4.00;;;6.00;99.90;;;;;;5017499;28;20607;-75
2022/04/10 02:20:39;;;;;;;6.50;3.80;;;5.90;99.90;;;;;;5016800;28;20267;-75
2022/04/10 02:23:06;;;;;;;7.37;4.33;;;6.00;99.90;;;;;;5018383;28;21100;-75
2022/04/10 02:25:31;;;;;;;5.13;4.07;;;5.90;99.90;;;;;;5018969;28;20676;-75
2022/04/10 02:27:57;;;;;;;6.77;4.37;;;6.00;99.90;;;;;;5014956;28;20463;-75
2022/04/10 02:30:23;;;;;;;6.50;4.20;;;5.90;99.90;;;;;;5021262;28;20183;-75
2022/04/10 02:32:48;;;;;;;4.27;3.57;;;6.00;99.90;;;;;;5018993;28;20219;-75
2022/04/10 02:35:14;;;;;;;6.87;4.00;;;6.10;99.90;;;;;;5018315;28;20180;-76
2022/04/10 02:37:40;;;;;;;4.80;3.80;;;6.10;99.90;;;;;;5018240;28;20199;-76
2022/04/10 02:40:08;;;;;;;5.17;3.97;;;6.10;99.90;;;;;;5018278;28;20946;-75
2022/04/10 02:42:36;;;;;;;5.97;4.53;;;6.20;99.90;;;;;;5019468;28;20952;-75
2022/04/10 02:45:03;;;;;;;6.43;4.50;;;6.10;99.90;;;;;;5017170;28;20463;-75
2022/04/10 02:47:30;;;;;;;6.50;3.90;;;6.00;99.90;;;;;;5018807;28;21208;-75
2022/04/10 02:49:56;;;;;;;4.67;3.50;;;6.00;99.90;;;;;;5015960;28;20520;-76
2022/04/10 02:52:22;;;;;;;4.50;4.10;;;6.20;99.90;;;;;;5015771;28;20439;-74
2022/04/10 02:54:48;;;;;;;6.73;4.30;;;6.20;99.90;;;;;;5017095;28;20436;-74
2022/04/10 02:57:14;;;;;;;6.60;3.93;;;6.30;99.90;;;;;;5020127;28;20449;-75
2022/04/10 02:59:40;;;;;;;5.13;4.20;;;6.20;99.90;;;;;;5017464;28;20212;-75
2022/04/10 03:02:06;;;;;;;5.17;3.90;;;6.20;99.90;;;;;;5019000;28;20526;-76
2022/04/10 03:04:31;;;;;;;8.57;3.97;;;6.10;99.90;;;;;;5019941;28;20561;-75
2022/04/10 03:06:57;;;;;;;5.90;4.33;;;6.00;99.90;;;;;;5023008;28;20212;-75
2022/04/10 03:09:23;;;;;;;5.63;4.40;;;5.70;99.90;;;;;;5017831;28;20729;-74
2022/04/10 03:11:49;;;;;;;5.77;4.47;;;5.70;99.90;;;;;;5020704;28;20180;-73
2022/04/10 03:14:15;;;;;;;5.23;4.23;;;5.70;99.90;;;;;;5015777;28;20893;-74
2022/04/10 03:16:42;;;;;;;6.10;4.73;;;5.80;99.90;;;;;;5016407;28;20431;-74
2022/04/10 03:19:08;;;;;;;5.47;4.40;;;5.90;99.90;;;;;;5019515;28;20216;-74
2022/04/10 03:21:34;;;;;;;5.53;3.80;;;5.70;99.90;;;;;;5018337;28;20471;-74
2022/04/10 03:24:01;;;;;;;8.43;4.37;;;5.80;99.90;;;;;;5017384;28;21412;-73
2022/04/10 03:26:27;;;;;;;6.10;4.43;;;5.90;99.90;;;;;;5015506;28;20714;-75
2022/04/10 03:28:53;;;;;;;4.10;3.67;;;5.90;99.90;;;;;;5018435;28;20450;-75
2022/04/10 03:31:20;;;;;;;6.50;4.57;;;5.80;99.90;;;;;;5021619;28;20431;-76
2022/04/10 03:33:46;;;;;;;7.60;4.90;;;5.90;99.90;;;;;;5018470;28;20431;-75
2022/04/10 03:36:13;;;;;;;7.10;3.97;;;5.80;99.90;;;;;;5020642;28;20435;-74
2022/04/10 03:38:39;;;;;;;5.10;3.70;;;5.80;99.90;;;;;;5014407;28;20463;-72
2022/04/10 03:41:04;;;;;;;5.30;4.30;;;5.80;99.90;;;;;;5015861;28;20447;-72
2022/04/10 03:43:32;;;;;;;6.57;4.40;;;5.80;99.90;;;;;;5018891;28;20513;-73
2022/04/10 03:45:58;;;;;;;7.03;3.97;;;5.70;99.90;;;;;;5021645;28;21482;-74
2022/04/10 03:48:24;;;;;;;4.17;3.77;;;5.80;99.90;;;;;;5022987;28;20475;-73
2022/04/10 03:50:49;;;;;;;6.10;4.10;;;5.70;99.90;;;;;;5021052;28;21044;-75
2022/04/10 03:53:15;;;;;;;6.23;3.97;;;5.70;99.90;;;;;;5021278;28;20542;-74
2022/04/10 03:55:41;;;;;;;6.33;4.03;;;5.80;99.90;;;;;;5021732;28;20187;-74
2022/04/10 03:58:07;;;;;;;7.50;5.07;;;5.80;99.90;;;;;;5019896;28;20195;-75
2022/04/10 04:00:32;;;;;;;5.77;4.07;;;5.80;99.90;;;;;;5022285;28;20210;-75
2022/04/10 04:02:58;;;;;;;8.43;4.67;;;5.80;99.90;;;;;;5020433;28;20180;-72
2022/04/10 04:05:24;;;;;;;5.40;3.70;;;5.70;99.90;;;;;;5012413;28;20221;-72
2022/04/10 04:07:49;;;;;;;5.23;4.20;;;5.80;99.90;;;;;;5019188;28;20463;-73
2022/04/10 04:10:15;;;;;;;8.10;4.10;;;5.70;99.90;;;;;;5020045;28;20998;-72
2022/04/10 04:12:41;;;;;;;7.00;4.37;;;5.70;99.90;;;;;;5022897;28;20181;-72
2022/04/10 04:15:07;;;;;;;5.90;3.90;;;5.80;99.90;;;;;;5020174;28;20199;-76
2022/04/10 04:17:33;;;;;;;7.50;4.80;;;5.80;99.90;;;;;;5020138;28;20183;-74
2022/04/10 04:19:59;;;;;;;7.53;4.60;;;5.80;99.90;;;;;;5017025;28;20466;-73
2022/04/10 04:22:24;;;;;;;6.60;4.60;;;5.70;99.90;;;;;;5019993;28;20453;-75
2022/04/10 04:24:50;;;;;;;9.20;4.93;;;5.70;99.90;;;;;;5020312;28;20372;-75
2022/04/10 04:27:15;;;;;;;6.13;4.73;;;5.70;99.90;;;;;;5015324;28;20820;-74
2022/04/10 04:29:41;;;;;;;6.13;4.40;;;5.70;99.90;;;;;;5020469;28;20196;-74
2022/04/10 04:32:07;;;;;;;5.47;4.20;;;5.60;99.90;;;;;;5018167;28;20212;-74
2022/04/10 04:34:33;;;;;;;7.23;4.47;;;5.60;99.90;;;;;;5021522;28;20193;-74
2022/04/10 04:36:58;;;;;;;7.00;4.13;;;5.60;99.90;;;;;;5019097;28;20439;-74
2022/04/10 04:39:24;;;;;;;8.77;5.67;;;5.60;99.90;;;;;;5017580;28;20227;-74
2022/04/10 04:41:49;;;;;;;9.60;4.77;;;5.50;99.90;;;;;;5019992;28;20291;-77
2022/04/10 04:44:15;;;;;;;7.10;4.63;;;5.60;99.90;;;;;;5017759;28;20757;-74
2022/04/10 04:46:41;;;;;;;5.53;4.50;;;5.60;99.90;;;;;;5015982;28;20231;-75
2022/04/10 04:49:07;;;;;;;7.30;5.30;;;5.60;99.90;;;;;;5017585;28;20284;-75
2022/04/10 04:51:36;;;;;;;6.83;4.93;;;5.70;99.90;;;;;;5018997;28;20573;-74
2022/04/10 04:54:04;;;;;;;9.60;5.10;;;5.80;99.90;;;;;;5019943;28;20501;-74
2022/04/10 04:56:31;;;;;;;7.40;4.50;;;5.80;99.90;;;;;;5017577;28;20435;-74
2022/04/10 04:58:56;;;;;;;6.67;4.93;;;5.80;99.90;;;;;;5016680;28;20846;-73
2022/04/10 05:01:22;;;;;;;10.03;4.90;;;5.70;99.90;;;;;;5019307;28;20431;-73
2022/04/10 05:03:49;;;;;;;5.80;4.50;;;5.80;99.90;;;;;;5021282;28;20207;-73
2022/04/10 05:06:15;;;;;;;6.40;4.80;;;5.80;99.90;;;;;;5019249;28;20530;-72
2022/04/10 05:08:41;;;;;;;6.73;5.33;;;5.70;99.90;;;;;;5017677;28;20486;-72
2022/04/10 05:11:09;;;;;;;9.13;5.97;;;5.70;99.90;;;;;;5017411;28;20221;-72
2022/04/10 05:13:35;;;;;;;7.50;5.43;;;5.70;99.90;;;;;;5021372;28;20437;-71
2022/04/10 05:16:01;;;;;;;7.37;5.37;;;5.60;99.90;;;;;;5015891;28;20529;-73
2022/04/10 05:18:26;;;;;;;7.70;5.77;;;5.60;99.90;;;;;;5020430;28;20572;-73
2022/04/10 05:20:52;;;;;;;10.83;5.87;;;5.60;99.90;;;;;;5021744;28;20234;-72
2022/04/10 05:23:19;;;;;;;6.23;5.17;;;5.70;99.90;;;;;;5017587;28;20212;-73
2022/04/10 05:25:45;;;;;;;6.50;4.67;;;5.70;99.90;;;;;;5019473;28;20219;-72
2022/04/10 05:28:11;;;;;;;6.37;4.87;;;5.80;99.90;;;;;;5018541;28;20576;-72
2022/04/10 05:30:38;;;;;;;7.10;5.73;;;5.90;99.90;;;;;;5020798;28;21082;-72
2022/04/10 05:33:03;;;;;;;13.30;5.97;;;5.80;99.90;;;;;;5015832;28;20447;-73
2022/04/10 05:35:29;;;;;;;8.43;5.73;;;5.90;99.90;;;;;;5019194;28;20435;-73
2022/04/10 05:37:55;;;;;;;11.80;6.00;;;5.80;99.90;;;;;;5018299;28;20176;-71
2022/04/10 05:40:22;;;;;;;6.90;5.10;;;5.80;99.90;;;;;;5017198;28;20173;-73
2022/04/10 05:42:48;;;;;;;5.20;4.70;;;6.00;99.90;;;;;;5020155;28;20187;-74
2022/04/10 05:45:14;;;;;;;7.37;6.00;;;6.00;99.90;;;;;;5015981;28;20466;-72
2022/04/10 05:47:41;;;;;;;7.80;5.30;;;6.00;99.90;;;;;;5021284;28;20525;-75
2022/04/10 05:50:08;;;;;;;7.60;5.57;;;6.00;99.90;;;;;;5018324;28;20581;-74
2022/04/10 05:52:41;;;;;;;8.20;5.83;;;6.00;99.90;;;;;;5017882;28;20457;-73
2022/04/10 05:55:08;;;;;;;9.63;5.40;;;5.90;99.90;;;;;;5018458;28;21062;-74
2022/04/10 05:57:35;;;;;;;8.17;5.77;;;6.00;99.90;;;;;;5018405;28;20446;-74
2022/04/10 06:00:01;;;;;;;9.10;5.20;;;6.00;99.90;;;;;;5016914;28;20462;-73
2022/04/10 06:02:27;;;;;;;9.00;5.10;;;6.00;99.90;;;;;;5017804;28;20449;-75
2022/04/10 06:04:53;;;;;;;11.60;5.27;;;6.10;99.90;;;;;;5014533;28;20504;-74
2022/04/10 06:07:18;;;;;;;8.60;5.30;;;6.10;99.90;;;;;;5019915;28;20431;-75
2022/04/10 06:09:44;;;;;;;7.00;5.33;;;6.10;99.90;;;;;;5016761;28;20208;-75
2022/04/10 06:12:10;;;;;;;16.00;5.60;;;6.00;99.90;;;;;;5014217;28;20208;-72
2022/04/10 06:14:35;;;;;;;6.03;4.93;;;6.00;99.90;;;;;;5015001;28;20204;-71
2022/04/10 06:17:02;;;;;;;7.77;5.50;;;6.00;99.90;;;;;;5018212;28;20191;-73
2022/04/10 06:19:27;;;;;;;6.57;4.83;;;6.00;99.90;;;;;;5018865;28;20216;-74
2022/04/10 06:21:56;;;;;;;6.70;4.73;;;6.00;99.90;;;;;;5019113;28;20446;-75
2022/04/10 06:24:22;;;;;;;10.80;5.47;;;6.00;99.90;;;;;;5015296;28;20287;-72
2022/04/10 06:26:51;;;;;;;6.33;5.40;;;6.00;99.90;;;;;;5019571;28;20515;-72
2022/04/10 06:29:16;;;;;;;8.73;6.07;;;6.00;99.90;;;;;;5015677;28;20257;-72
2022/04/10 06:31:42;;;;;;;8.63;5.87;;;6.10;99.90;;;;;;5017208;28;20470;-73
2022/04/10 06:34:08;;;;;;;8.90;5.70;;;6.10;99.90;;;;;;5018482;28;20299;-72
2022/04/10 06:36:33;;;;;;;9.00;5.63;;;6.30;99.90;;;;;;5018632;28;20188;-72
2022/04/10 06:38:59;;;;;;;8.87;4.90;;;6.20;99.90;;;;;;5016846;28;20201;-72
2022/04/10 06:41:24;;;;;;;7.43;5.40;;;6.20;99.90;;;;;;5015813;28;20192;-72
2022/04/10 06:43:50;;;;;;;6.70;4.70;;;6.30;99.90;;;;;;5018098;28;20752;-73
2022/04/10 06:46:16;;;;;;;10.77;5.70;;;6.30;99.90;;;;;;5016942;28;20195;-72
2022/04/10 06:48:41;;;;;;;7.37;5.90;;;6.40;99.90;;;;;;5020427;28;20200;-72
2022/04/10 06:51:07;;;;;;;7.70;5.23;;;6.30;99.90;;;;;;5018454;28;20176;-71
2022/04/10 06:53:33;;;;;;;10.97;5.20;;;6.30;99.90;;;;;;5020484;28;20263;-72
2022/04/10 06:55:59;;;;;;;6.47;5.60;;;6.40;99.90;;;;;;5017602;28;20419;-72
2022/04/10 06:58:24;;;;;;;6.33;4.77;;;6.30;99.90;;;;;;5020706;28;20457;-73
2022/04/10 07:00:50;;;;;;;6.17;4.70;;;6.40;99.90;;;;;;5018052;28;20255;-72
2022/04/10 07:03:16;;;;;;;6.37;5.33;;;6.50;99.90;;;;;;5015899;28;20223;-72
2022/04/10 07:05:41;;;;;;;7.30;5.77;;;6.40;99.90;;;;;;5019229;28;20177;-71
2022/04/10 07:08:08;;;;;;;8.23;5.13;;;6.50;99.90;;;;;;5019496;28;21012;-72
2022/04/10 07:10:34;;;;;;;7.40;5.97;;;6.50;99.90;;;;;;5016177;28;20703;-73
2022/04/10 07:13:00;;;;;;;6.43;5.50;;;6.50;99.90;;;;;;5019013;28;20427;-73
2022/04/10 07:15:26;;;;;;;7.43;5.50;;;6.60;99.90;;;;;;5020771;28;20577;-74
2022/04/10 07:17:52;;;;;;;7.10;5.13;;;6.60;99.90;;;;;;5018950;28;20207;-72
2022/04/10 07:20:17;;;;;;;7.30;5.07;;;6.60;99.90;;;;;;5021831;28;20448;-73
2022/04/10 07:25:27;;;;;;;6.63;4.90;;;6.70;99.90;;;;;;5019651;28;20370;-74
2022/04/10 07:27:53;;;;;;;7.37;5.23;;;6.70;99.90;;;;;;5021768;28;20509;-73
2022/04/10 07:30:19;;;;;;;6.80;5.03;;;6.60;99.90;;;;;;5019270;28;20218;-73
2022/04/10 07:32:55;;;;;;;5.80;4.80;;;6.70;99.90;;;;;;5020915;28;20189;-74
2022/04/10 07:35:21;;;;;;;8.07;5.73;;;6.80;99.90;;;;;;5018254;28;20195;-72
2022/04/10 07:37:47;;;;;;;7.93;5.23;;;6.80;99.90;;;;;;5019659;28;20545;-72
2022/04/10 07:40:13;;;;;;;6.60;5.10;;;6.90;99.90;;;;;;5017367;28;20578;-74
2022/04/10 07:42:41;;;;;;;5.53;4.67;;;6.90;99.90;;;;;;5023762;28;20431;-72
2022/04/10 07:45:07;;;;;;;6.90;5.60;;;7.00;99.90;;;;;;5018949;28;20826;-73
2022/04/10 07:47:32;;;;;;;10.60;6.00;;;7.00;99.90;;;;;;5017507;28;20536;-72
2022/04/10 07:49:58;;;;;;;8.97;6.93;;;7.10;99.90;;;;;;5018504;28;20956;-72
2022/04/10 07:52:24;;;;;;;8.93;5.43;;;7.20;99.90;;;;;;5018460;28;20191;-74
2022/04/10 07:54:52;;;;;;;8.40;5.97;;;7.20;99.90;;;;;;5021390;28;20189;-72
2022/04/10 07:57:18;;;;;;;8.30;6.17;;;7.20;99.90;;;;;;5020540;28;20442;-73
2022/04/10 07:59:44;;;;;;;6.27;5.47;;;7.30;99.90;;;;;;5027121;28;20455;-72
2022/04/10 08:02:10;;;;;;;7.07;5.20;;;7.30;99.90;;;;;;5019728;28;20450;-72
2022/04/10 08:04:36;;;;;;;7.73;5.50;;;7.40;99.90;;;;;;5021229;28;20410;-74
2022/04/10 08:07:02;;;;;;;6.37;5.37;;;7.40;99.90;;;;;;5021955;28;20434;-73
2022/04/10 08:09:28;;;;;;;8.00;5.73;;;7.50;99.90;;;;;;5021672;28;20451;-72
2022/04/10 08:11:54;;;;;;;7.83;5.17;;;7.60;99.90;;;;;;5024217;28;20870;-75
2022/04/10 08:14:20;;;;;;;8.60;5.80;;;7.60;99.90;;;;;;5016291;28;20700;-73
2022/04/10 08:16:45;;;;;;;6.00;4.97;;;7.70;99.90;;;;;;5024985;28;20287;-75
2022/04/10 08:19:11;;;;;;;7.00;5.10;;;7.80;99.90;;;;;;5015960;28;20470;-75
2022/04/10 08:21:37;;;;;;;6.73;5.23;;;7.80;99.90;;;;;;5019359;28;20180;-74
2022/04/10 08:24:03;;;;;;;6.70;5.70;;;7.80;99.90;;;;;;5012032;28;20918;-75
2022/04/10 08:26:29;;;;;;;7.10;6.20;;;7.80;99.90;;;;;;5016940;28;21944;-75
2022/04/10 08:28:54;;;;;;;7.40;4.87;;;7.80;99.90;;;;;;5012038;28;20451;-75
2022/04/10 08:31:20;;;;;;;6.87;5.20;;;7.80;99.90;;;;;;5012981;28;20192;-74
2022/04/10 08:33:46;;;;;;;8.33;5.63;;;8.00;99.90;;;;;;5014276;28;20768;-75
2022/04/10 08:36:12;;;;;;;9.60;5.50;;;8.10;99.90;;;;;;5017427;28;20250;-75
2022/04/10 08:38:38;;;;;;;5.80;4.90;;;8.20;99.90;;;;;;5020854;28;20467;-76
2022/04/10 08:41:06;;;;;;;6.30;5.63;;;8.20;99.90;;;;;;5027715;28;20435;-73
2022/04/10 08:43:31;;;;;;;5.07;4.57;;;8.30;99.90;;;;;;5022072;28;20235;-77
2022/04/10 08:45:58;;;;;;;6.83;5.10;;;8.50;99.90;;;;;;5022083;28;21087;-77
2022/04/10 08:48:26;;;;;;;5.90;5.30;;;8.50;99.90;;;;;;5020413;28;20204;-76
2022/04/10 08:50:55;;;;;;;7.20;5.30;;;8.50;99.90;;;;;;5019756;28;20462;-78
2022/04/10 08:53:23;;;;;;;6.23;5.63;;;8.50;99.90;;;;;;5023690;28;20459;-78
2022/04/10 08:55:48;;;;;;;5.70;4.50;;;8.50;99.90;;;;;;5023892;28;20441;-76
2022/04/10 08:58:14;;;;;;;6.80;5.07;;;8.40;99.90;;;;;;5019025;28;20565;-76
2022/04/10 09:00:43;;;;;;;6.90;5.00;;;8.40;99.90;;;;;;5024460;28;20181;-78
2022/04/10 09:03:09;;;;;;;7.57;5.83;;;8.50;99.90;;;;;;5021685;28;20673;-78
2022/04/10 09:05:34;;;;;;;8.67;5.53;;;8.50;99.90;;;;;;5018873;28;20514;-76
2022/04/10 09:08:18;;;;;;;7.23;5.23;;;8.50;99.90;;;;;;5023693;28;20186;-76
2022/04/10 09:10:58;;;;;;;7.27;4.90;;;8.50;99.90;;;;;;5023585;28;20180;-77
2022/04/10 09:13:37;;;;;;;5.73;4.73;;;8.50;99.90;;;;;;5021086;28;20814;-76
2022/04/10 09:16:21;;;;;;;5.30;4.80;;;8.50;99.90;;;;;;5021998;28;20619;-77
2022/04/10 09:18:58;;;;;;;11.13;6.07;;;8.50;99.90;;;;;;5018289;28;20467;-77
2022/04/10 09:21:29;;;;;;;7.20;5.27;;;8.60;99.90;;;;;;5015864;28;20453;-75
2022/04/10 09:24:05;;;;;;;5.67;5.10;;;8.70;99.90;;;;;;5020778;28;20896;-76
2022/04/10 09:26:52;;;;;;;6.60;5.10;;;8.60;99.90;;;;;;5020105;28;20427;-76
2022/04/10 09:29:20;;;;;;;7.33;5.43;;;8.50;99.90;;;;;;5021217;28;20542;-77
2022/04/10 09:31:47;;;;;;;8.00;5.40;;;8.50;99.90;;;;;;5024030;28;20430;-76
2022/04/10 09:34:17;;;;;;;6.57;5.50;;;8.40;99.90;;;;;;5025671;28;20469;-77
2022/04/10 09:36:46;;;;;;;8.27;4.83;;;8.60;99.90;;;;;;5026624;28;20964;-77
2022/04/10 09:39:29;;;;;;;5.73;5.10;;;8.60;99.90;;;;;;5022368;28;20494;-77
2022/04/10 09:42:12;;;;;;;8.63;5.80;;;8.60;99.90;;;;;;5021134;28;20461;-77
2022/04/10 09:44:39;;;;;;;7.23;5.13;;;8.70;99.90;;;;;;5022027;28;20461;-77
2022/04/10 09:47:09;;;;;;;6.37;5.60;;;8.80;99.90;;;;;;5020649;28;20431;-77
2022/04/10 09:49:41;;;;;;;10.50;5.20;;;8.80;99.90;;;;;;5022878;28;20456;-77
2022/04/10 09:52:12;;;;;;;6.20;5.57;;;8.90;99.90;;;;;;5017219;28;20436;-77
2022/04/10 09:54:46;;;;;;;7.00;5.70;;;8.90;99.90;;;;;;5020551;28;20443;-78
2022/04/10 09:57:14;;;;;;;5.43;4.93;;;8.80;99.90;;;;;;5021412;28;20435;-77
2022/04/10 09:59:50;;;;;;;8.20;5.30;;;8.90;99.90;;;;;;5023224;28;20509;-77
2022/04/10 10:02:18;;;;;;;5.93;4.87;;;9.00;99.90;;;;;;5022962;28;20427;-77
2022/04/10 10:04:46;;;;;;;7.47;5.77;;;9.10;99.90;;;;;;5022681;28;20490;-76
2022/04/10 10:07:13;;;;;;;8.83;5.87;;;9.00;99.90;;;;;;5021980;28;20431;-77
2022/04/10 10:09:39;;;;;;;5.97;5.17;;;9.10;99.90;;;;;;5019208;28;20439;-76
2022/04/10 10:12:06;;;;;;;7.87;5.80;;;9.10;99.90;;;;;;5020708;28;20425;-76
2022/04/10 10:14:34;;;;;;;7.13;5.40;;;9.20;99.90;;;;;;5019198;28;20819;-75
2022/04/10 10:17:01;;;;;;;8.13;5.30;;;9.20;99.90;;;;;;5020858;28;20430;-78
2022/04/10 10:19:29;;;;;;;8.13;6.00;;;9.20;99.90;;;;;;5023511;28;20497;-75
2022/04/10 10:21:55;;;;;;;6.93;6.27;;;9.10;99.90;;;;;;5017328;28;20431;-76
2022/04/10 10:24:24;;;;;;;6.30;5.47;;;9.10;99.90;;;;;;5011258;28;20470;-76
2022/04/10 10:27:18;;;;;;;6.40;5.47;;;9.10;99.90;;;;;;5022764;28;20859;-76
2022/04/10 10:29:49;;;;;;;7.73;6.10;;;9.10;99.90;;;;;;5020711;28;20986;-76
2022/04/10 10:32:27;;;;;;;7.83;5.70;;;9.00;99.90;;;;;;5020273;28;20776;-76
2022/04/10 10:34:53;;;;;;;12.60;6.13;;;8.80;99.90;;;;;;5017031;28;20432;-76
2022/04/10 10:37:30;;;;;;;6.97;5.30;;;8.80;99.90;;;;;;5019521;28;21105;-77
2022/04/10 10:39:58;;;;;;;8.50;5.90;;;8.80;99.90;;;;;;5019339;28;20603;-76
2022/04/10 10:42:24;;;;;;;7.00;5.60;;;8.90;99.90;;;;;;5019603;28;20426;-77
2022/04/10 10:44:51;;;;;;;10.67;5.80;;;9.10;99.90;;;;;;5018304;28;21244;-77
2022/04/10 10:47:24;;;;;;;5.80;5.20;;;8.90;99.90;;;;;;5016304;28;20822;-76
2022/04/10 10:49:52;;;;;;;6.93;5.73;;;8.60;99.90;;;;;;5017672;28;20920;-76
2022/04/10 10:52:19;;;;;;;6.47;5.80;;;8.40;99.90;;;;;;5021298;28;20473;-76
2022/04/10 10:54:53;;;;;;;7.30;5.83;;;8.30;99.90;;;;;;5025469;28;20434;-75
2022/04/10 10:57:28;;;;;;;7.83;5.87;;;8.40;99.90;;;;;;5023110;28;20502;-77
2022/04/10 11:00:20;;;;;;;7.40;5.63;;;8.50;99.90;;;;;;5014723;28;20469;-75
2022/04/10 11:02:53;;;;;;;7.90;6.90;;;8.70;99.90;;;;;;5022016;28;20583;-76
2022/04/10 11:05:25;;;;;;;8.80;6.40;;;8.70;99.90;;;;;;5020744;28;20463;-77
2022/04/10 11:07:56;;;;;;;7.43;6.30;;;8.60;99.90;;;;;;5022595;28;20987;-77
2022/04/10 11:10:24;;;;;;;13.80;6.30;;;9.00;99.90;;;;;;5018040;28;20452;-77
2022/04/10 11:12:53;;;;;;;12.73;8.20;;;9.10;99.90;;;;;;5020278;28;20445;-77
2022/04/10 11:15:22;;;;;;;10.83;8.03;;;9.30;99.90;;;;;;5022576;28;20435;-77
2022/04/10 11:17:52;;;;;;;9.00;7.63;;;9.20;99.90;;;;;;5023792;28;20542;-77
2022/04/10 11:20:23;;;;;;;11.00;8.30;;;9.30;99.90;;;;;;5024423;28;20451;-77
2022/04/10 11:22:52;;;;;;;12.20;6.93;;;9.20;99.90;;;;;;5020833;28;21294;-77
2022/04/10 11:25:19;;;;;;;8.40;6.33;;;9.40;99.90;;;;;;5025762;28;20469;-78
2022/04/10 11:27:53;;;;;;;10.83;7.80;;;9.50;99.90;;;;;;5031860;28;20947;-77
2022/04/10 11:30:21;;;;;;;9.57;6.53;;;9.70;99.90;;;;;;5024761;28;20515;-78
2022/04/10 11:32:54;;;;;;;7.27;6.57;;;9.80;99.90;;;;;;5024292;28;20466;-77
2022/04/10 11:35:24;;;;;;;8.87;6.20;;;9.80;99.90;;;;;;5026661;28;20474;-77
2022/04/10 11:37:52;;;;;;;9.63;7.07;;;9.90;99.90;;;;;;5025280;28;20435;-78
2022/04/10 11:40:31;;;;;;;11.60;5.40;;;10.10;99.90;;;;;;5026775;28;20876;-77
2022/04/10 11:42:59;;;;;;;9.00;6.40;;;10.30;99.90;;;;;;5022414;28;20488;-77
2022/04/10 11:45:28;;;;;;;7.83;6.87;;;10.40;99.90;;;;;;5021667;28;20490;-78
2022/04/10 11:47:54;;;;;;;7.43;6.70;;;10.40;99.90;;;;;;5021980;28;20436;-79
2022/04/10 11:50:24;;;;;;;10.77;8.47;;;10.50;99.90;;;;;;5023528;28;20447;-77
2022/04/10 11:53:12;;;;;;;9.33;6.10;;;10.40;99.90;;;;;;5024287;28;20430;-77
2022/04/10 11:55:39;;;;;;;6.80;5.40;;;10.40;99.90;;;;;;5022474;28;20423;-80
2022/04/10 11:58:16;;;;;;;10.00;6.30;;;10.30;99.90;;;;;;5023366;28;20849;-77
2022/04/10 12:00:58;;;;;;;10.10;5.17;;;9.90;99.90;;;;;;5020668;28;20436;-78
2022/04/10 12:03:33;;;;;;;6.77;5.20;;;9.40;99.90;;;;;;5024161;28;20434;-77
2022/04/10 12:05:59;;;;;;;9.23;5.77;;;9.20;99.90;;;;;;5019662;28;20431;-78
2022/04/10 12:08:25;;;;;;;6.77;5.83;;;8.80;99.90;;;;;;5022423;28;20446;-77
2022/04/10 12:10:58;;;;;;;6.97;5.37;;;8.70;99.90;;;;;;5021265;28;20513;-77
2022/04/10 12:13:29;;;;;;;10.23;7.47;;;8.70;99.90;;;;;;5028649;28;20443;-78
2022/04/10 12:15:59;;;;;;;12.00;7.90;;;8.70;99.90;;;;;;5027627;28;20427;-77
2022/04/10 12:18:24;;;;;;;11.80;8.63;;;8.90;99.90;;;;;;5022829;28;20490;-77
2022/04/10 12:20:59;;;;;;;9.00;7.33;;;8.90;99.90;;;;;;5023288;28;20917;-76
2022/04/10 12:23:25;;;;;;;8.53;6.27;;;9.50;99.90;;;;;;5020270;28;20268;-78
2022/04/10 12:25:54;;;;;;;9.40;6.27;;;9.90;99.90;;;;;;5019070;28;20921;-77
2022/04/10 12:28:20;;;;;;;7.47;5.70;;;10.20;99.90;;;;;;5024017;28;20434;-77
2022/04/10 12:30:46;;;;;;;8.23;6.27;;;10.70;99.90;;;;;;5020034;28;20507;-78
2022/04/10 12:33:13;;;;;;;10.60;6.57;;;11.00;99.90;;;;;;5023191;28;20809;-77
2022/04/10 12:35:43;;;;;;;9.57;6.70;;;11.20;99.90;;;;;;5025806;28;20429;-78
2022/04/10 12:38:16;;;;;;;7.47;5.70;;;11.30;99.90;;;;;;5024896;28;20427;-78
2022/04/10 12:40:42;;;;;;;7.33;5.43;;;11.70;99.90;;;;;;5024120;28;20425;-77
2022/04/10 12:43:09;;;;;;;8.10;5.20;;;12.00;99.90;;;;;;5012591;28;20520;-79
2022/04/10 12:45:36;;;;;;;6.10;4.90;;;12.50;99.90;;;;;;5019797;28;20455;-78
2022/04/10 12:48:19;;;;;;;5.77;4.53;;;12.40;99.90;;;;;;5022013;28;20515;-76
2022/04/10 12:50:45;;;;;;;7.10;4.80;;;12.90;99.90;;;;;;5020982;28;20423;-77
2022/04/10 12:53:11;;;;;;;7.00;4.50;;;12.70;99.90;;;;;;5022210;28;20447;-77
2022/04/10 12:55:38;;;;;;;5.90;5.40;;;12.00;99.90;;;;;;5022392;28;20291;-78
2022/04/10 12:58:07;;;;;;;5.83;4.60;;;11.40;99.90;;;;;;5018738;28;20944;-78
2022/04/10 13:00:43;;;;;;;5.13;4.33;;;11.20;99.90;;;;;;5020438;28;20590;-79